Time;durP1;ratioP1;P1;durP2;ratioP2;P2;SDS_P1;SDS_P2;PMS_P1;PMS_P2;Temp;Humidity;BMP_temperature;BMP_pressure;BME280_temperature;BME280_humidity;BME280_pressure;Samples;Min_cycle;Max_cycle;Signal;HPM_P1;HPM_P2
2022/11/07 00:00:33;;;;;;;1.27;1.17;;;;;;;13.45;96.47;99547.69;5113078;28;20225;-57
2022/11/07 00:03:00;;;;;;;0.63;0.63;;;;;;;13.31;97.38;99541.84;5113435;28;20201;-57
2022/11/07 00:05:27;;;;;;;1.03;0.90;;;;;;;13.40;96.83;99540.31;5113012;28;20230;-58
2022/11/07 00:07:55;;;;;;;1.80;1.00;;;;;;;13.31;97.34;99541.03;5113099;28;20217;-57
2022/11/07 00:10:22;;;;;;;0.77;0.77;;;;;;;13.36;97.22;99544.88;5112892;28;20226;-61
2022/11/07 00:12:48;;;;;;;1.13;0.80;;;;;;;13.42;96.82;99543.59;5113215;28;20206;-58
2022/11/07 00:15:15;;;;;;;1.23;1.13;;;;;;;13.41;96.63;99547.13;5113239;28;20221;-58
2022/11/07 00:17:42;;;;;;;0.70;0.50;;;;;;;13.48;96.70;99542.31;5112858;27;20697;-57
2022/11/07 00:20:10;;;;;;;1.67;0.97;;;;;;;13.40;96.59;99536.94;5112685;28;20772;-57
2022/11/07 00:22:36;;;;;;;1.60;1.03;;;;;;;13.51;96.39;99542.06;5112922;28;20190;-61
2022/11/07 00:25:06;;;;;;;0.80;0.80;;;;;;;13.41;96.78;99536.00;5112704;27;20217;-58
2022/11/07 00:27:32;;;;;;;1.03;0.70;;;;;;;13.39;96.48;99530.19;5112792;28;20623;-61
2022/11/07 00:29:59;;;;;;;3.00;0.80;;;;;;;13.42;96.47;99535.09;5112596;28;20246;-58
2022/11/07 00:32:26;;;;;;;0.73;0.73;;;;;;;13.36;96.16;99529.47;5112627;28;20206;-57
2022/11/07 00:34:52;;;;;;;0.50;0.50;;;;;;;13.34;96.13;99523.63;5112190;28;20667;-61
2022/11/07 00:37:19;;;;;;;1.23;0.80;;;;;;;13.34;96.62;99531.34;5112585;28;20703;-60
2022/11/07 00:39:46;;;;;;;0.77;0.77;;;;;;;13.30;96.76;99535.09;5112254;28;20226;-61
2022/11/07 00:42:14;;;;;;;0.93;0.77;;;;;;;13.23;96.98;99544.16;5112378;28;20201;-57
2022/11/07 00:44:41;;;;;;;1.57;1.07;;;;;;;13.23;97.06;99539.00;5112431;28;20225;-61
2022/11/07 00:47:08;;;;;;;0.70;0.70;;;;;;;13.27;97.09;99555.88;5112342;28;20700;-57
2022/11/07 00:49:34;;;;;;;0.87;0.73;;;;;;;13.35;96.20;99558.69;5112219;28;20778;-57
2022/11/07 00:52:01;;;;;;;0.90;0.90;;;;;;;13.43;96.33;99560.63;5112154;28;20261;-57
2022/11/07 00:54:28;;;;;;;1.13;0.90;;;;;;;13.47;95.97;99556.91;5112173;28;20228;-57
2022/11/07 00:56:55;;;;;;;0.67;0.67;;;;;;;13.41;95.98;99557.38;5112010;28;20203;-61
2022/11/07 00:59:23;;;;;;;0.70;0.60;;;;;;;13.47;95.84;99558.69;5110881;27;20226;-57
2022/11/07 01:01:49;;;;;;;0.30;0.30;;;;;;;13.45;95.96;99557.97;5111966;28;20199;-57
2022/11/07 01:07:02;;;;;;;0.60;0.57;;;;;;;13.31;96.08;99557.25;5111986;28;20206;-57
2022/11/07 01:09:28;;;;;;;0.23;0.23;;;;;;;13.33;96.64;99555.41;5111942;28;20234;-57
2022/11/07 01:11:55;;;;;;;0.57;0.57;;;;;;;13.41;96.05;99556.53;5111781;28;20210;-61
2022/11/07 01:14:24;;;;;;;0.60;0.60;;;;;;;13.35;95.81;99553.53;5111970;27;20233;-57
2022/11/07 01:16:51;;;;;;;0.80;0.80;;;;;;;13.40;95.94;99555.75;5111768;28;20207;-61
2022/11/07 01:19:18;;;;;;;0.70;0.70;;;;;;;13.42;95.62;99553.88;5111808;28;20284;-57
2022/11/07 01:21:46;;;;;;;0.60;0.60;;;;;;;13.39;95.71;99559.25;5111769;28;20198;-61
2022/11/07 01:24:14;;;;;;;0.67;0.67;;;;;;;13.34;95.95;99558.78;5111699;28;20225;-57
2022/11/07 01:26:43;;;;;;;0.40;0.40;;;;;;;13.35;95.55;99553.53;5111376;27;20707;-57
2022/11/07 01:29:10;;;;;;;0.57;0.50;;;;;;;13.29;96.14;99551.44;5111146;28;20244;-61
2022/11/07 01:31:38;;;;;;;0.43;0.43;;;;;;;13.31;96.40;99557.25;5111422;28;20213;-61
2022/11/07 01:34:05;;;;;;;0.73;0.63;;;;;;;13.26;96.34;99554.22;5111142;28;20219;-57
2022/11/07 01:36:32;;;;;;;0.80;0.80;;;;;;;13.23;96.11;99544.16;5111546;28;20679;-57
2022/11/07 01:38:59;;;;;;;0.43;0.43;;;;;;;13.20;96.59;99549.50;5111071;28;20234;-57
2022/11/07 01:41:28;;;;;;;1.37;0.90;;;;;;;13.23;96.70;99549.28;5111203;28;20205;-61
2022/11/07 01:43:58;;;;;;;0.33;0.33;;;;;;;13.29;95.83;99545.47;5111124;27;20214;-61
2022/11/07 01:46:29;;;;;;;0.53;0.53;;;;;;;13.19;95.91;99550.47;5111089;28;20295;-61
2022/11/07 01:49:03;;;;;;;0.70;0.70;;;;;;;13.09;96.19;99552.09;5111169;28;20797;-60
2022/11/07 01:51:34;;;;;;;1.63;0.67;;;;;;;13.19;95.53;99547.88;5111049;28;20198;-58
2022/11/07 01:54:02;;;;;;;0.83;0.80;;;;;;;13.10;95.11;99556.28;5111086;27;20274;-57
2022/11/07 01:56:33;;;;;;;2.57;0.50;;;;;;;13.13;95.08;99559.44;5110937;28;20202;-58
2022/11/07 01:59:00;;;;;;;0.50;0.50;;;;;;;13.09;95.34;99563.19;5110932;28;20230;-57
2022/11/07 02:01:27;;;;;;;1.50;1.40;;;;;;;13.06;95.07;99567.69;5111006;27;20198;-57
2022/11/07 02:03:57;;;;;;;0.40;0.40;;;;;;;13.05;95.28;99560.94;5110618;28;20630;-57
2022/11/07 02:06:35;;;;;;;0.40;0.40;;;;;;;13.05;95.55;99566.06;5110478;28;20202;-60
2022/11/07 02:09:02;;;;;;;0.60;0.60;;;;;;;13.10;94.47;99564.81;5110722;28;20304;-61
2022/11/07 02:11:29;;;;;;;0.30;0.30;;;;;;;13.06;94.20;99567.69;5110053;28;20201;-57
2022/11/07 02:13:56;;;;;;;0.57;0.57;;;;;;;12.90;94.01;99568.84;5110307;28;20200;-61
2022/11/07 02:16:23;;;;;;;0.43;0.40;;;;;;;12.87;93.94;99569.09;5110615;28;20198;-61
2022/11/07 02:18:50;;;;;;;0.37;0.37;;;;;;;12.95;94.33;99565.16;5110460;28;20199;-61
2022/11/07 02:21:29;;;;;;;0.43;0.30;;;;;;;12.82;94.33;99567.78;5110253;28;20749;-61
2022/11/07 02:24:01;;;;;;;1.10;0.83;;;;;;;12.82;94.20;99568.59;5110093;28;20730;-57
2022/11/07 02:26:29;;;;;;;0.37;0.37;;;;;;;12.83;94.55;99566.88;5110305;28;20212;-61
2022/11/07 02:28:57;;;;;;;0.40;0.40;;;;;;;12.76;94.65;99558.78;5109915;28;20217;-58
2022/11/07 02:31:24;;;;;;;0.27;0.27;;;;;;;12.76;95.31;99569.06;5110058;28;20201;-61
2022/11/07 02:33:51;;;;;;;0.23;0.23;;;;;;;12.73;95.25;99566.72;5110083;28;20201;-57
2022/11/07 02:36:21;;;;;;;0.93;0.47;;;;;;;12.67;95.70;99562.03;5110141;28;20614;-61
2022/11/07 02:38:56;;;;;;;1.17;0.77;;;;;;;12.63;95.52;99570.91;5110146;28;20204;-58
2022/11/07 02:41:25;;;;;;;0.37;0.37;;;;;;;12.80;95.08;99565.34;5110106;28;20201;-57
2022/11/07 02:43:57;;;;;;;0.20;0.20;;;;;;;12.69;95.55;99571.25;5109975;28;20662;-61
2022/11/07 02:46:25;;;;;;;0.30;0.30;;;;;;;12.71;95.68;99562.63;5110098;28;20232;-58
2022/11/07 02:48:55;;;;;;;0.63;0.53;;;;;;;12.75;94.81;99564.84;5109974;28;20216;-57
2022/11/07 02:51:22;;;;;;;0.40;0.40;;;;;;;12.66;95.56;99560.41;5110063;28;20639;-61
2022/11/07 02:53:49;;;;;;;0.40;0.40;;;;;;;12.74;95.23;99565.81;5109928;28;20197;-57
2022/11/07 02:56:15;;;;;;;0.47;0.30;;;;;;;12.71;95.17;99560.06;5109770;28;20212;-61
2022/11/07 02:58:42;;;;;;;0.50;0.50;;;;;;;12.69;95.14;99567.88;5109763;28;20197;-61
2022/11/07 03:01:11;;;;;;;0.40;0.40;;;;;;;12.65;95.96;99569.84;5110095;28;20205;-57
2022/11/07 03:03:40;;;;;;;0.10;0.10;;;;;;;12.69;95.51;99566.13;5109930;28;20649;-61
2022/11/07 03:06:08;;;;;;;0.27;0.27;;;;;;;12.72;95.29;99574.53;5110037;28;20681;-61
2022/11/07 03:08:34;;;;;;;0.33;0.20;;;;;;;12.73;95.15;99573.59;5110213;28;20205;-61
2022/11/07 03:11:01;;;;;;;0.13;0.13;;;;;;;12.83;95.14;99566.88;5109608;28;20233;-60
2022/11/07 03:13:28;;;;;;;0.50;0.50;;;;;;;12.69;95.40;99560.19;5109505;28;20693;-57
2022/11/07 03:15:55;;;;;;;0.40;0.40;;;;;;;12.69;95.80;99570.44;5109516;28;20217;-61
2022/11/07 03:18:24;;;;;;;0.77;0.60;;;;;;;12.77;94.88;99562.16;5109747;28;20232;-61
2022/11/07 03:20:51;;;;;;;1.10;1.00;;;;;;;12.80;95.48;99564.50;5109642;28;20507;-61
2022/11/07 03:23:18;;;;;;;0.40;0.40;;;;;;;12.82;95.28;99560.09;5111672;28;20193;-61
2022/11/07 03:25:44;;;;;;;0.53;0.53;;;;;;;12.76;95.35;99569.06;5113612;28;20213;-57
2022/11/07 03:28:11;;;;;;;0.20;0.20;;;;;;;12.76;95.67;99570.81;5113578;28;20201;-61
2022/11/07 03:30:38;;;;;;;0.47;0.40;;;;;;;12.69;95.90;99571.25;5113523;28;20233;-61
2022/11/07 03:33:05;;;;;;;0.47;0.43;;;;;;;12.71;95.86;99571.13;5113723;28;20202;-61
2022/11/07 03:35:33;;;;;;;0.60;0.53;;;;;;;12.82;95.62;99575.47;5113708;28;20209;-60
2022/11/07 03:38:00;;;;;;;0.70;0.70;;;;;;;12.79;95.45;99576.53;5113632;28;20709;-57
2022/11/07 03:40:26;;;;;;;2.67;0.93;;;;;;;12.81;95.28;99579.00;5113670;28;20240;-60
2022/11/07 03:42:53;;;;;;;0.30;0.30;;;;;;;12.67;96.04;99582.56;5113429;28;20190;-60
2022/11/07 03:45:20;;;;;;;0.30;0.30;;;;;;;12.74;95.54;99583.75;5113685;28;20213;-57
2022/11/07 03:47:47;;;;;;;0.53;0.30;;;;;;;12.60;95.82;99571.13;5113557;28;20204;-57
2022/11/07 03:50:16;;;;;;;0.30;0.30;;;;;;;12.58;96.38;99588.38;5113150;28;20757;-57
2022/11/07 03:52:44;;;;;;;0.40;0.40;;;;;;;12.61;96.43;99593.28;5113332;28;20677;-57
2022/11/07 03:55:14;;;;;;;0.60;0.60;;;;;;;12.56;96.22;99596.16;5113055;27;20225;-57
2022/11/07 03:57:41;;;;;;;0.30;0.30;;;;;;;12.59;96.07;99597.69;5113073;28;20204;-57
2022/11/07 04:00:10;;;;;;;0.33;0.33;;;;;;;12.61;96.18;99593.28;5113186;28;20607;-61
2022/11/07 04:02:36;;;;;;;0.47;0.43;;;;;;;12.52;96.03;99584.50;5113097;28;20205;-61
2022/11/07 04:05:04;;;;;;;0.37;0.37;;;;;;;12.56;96.48;99587.66;5112865;28;20228;-57
2022/11/07 04:07:31;;;;;;;0.10;0.10;;;;;;;12.59;95.85;99590.00;5112981;28;20228;-57
2022/11/07 04:09:59;;;;;;;0.23;0.23;;;;;;;12.60;96.16;99594.22;5112953;28;20777;-57
2022/11/07 04:17:55;;;;;;;0.47;0.47;;;;;;;12.49;96.37;99584.72;5112680;28;20664;-61
2022/11/07 04:20:22;;;;;;;0.67;0.60;;;;;;;12.52;96.53;99584.50;5112591;28;20213;-61
2022/11/07 04:22:49;;;;;;;0.43;0.43;;;;;;;12.55;95.99;99579.13;5112704;28;20254;-61
2022/11/07 04:25:17;;;;;;;1.33;0.50;;;;;;;12.50;95.76;99585.53;5112469;28;20222;-61
2022/11/07 04:27:43;;;;;;;0.30;0.30;;;;;;;12.37;96.61;99588.97;5112414;28;20197;-57
2022/11/07 04:30:24;;;;;;;0.30;0.30;;;;;;;12.42;96.80;99589.47;5112191;28;20286;-61
2022/11/07 04:32:53;;;;;;;0.20;0.20;;;;;;;12.45;96.67;99585.88;5112399;28;20193;-61
2022/11/07 04:35:21;;;;;;;0.40;0.40;;;;;;;12.60;95.90;99589.06;5111975;28;20701;-57
2022/11/07 04:37:48;;;;;;;0.30;0.30;;;;;;;12.52;96.22;99589.63;5112223;28;20681;-61
2022/11/07 04:40:17;;;;;;;0.93;0.60;;;;;;;12.48;95.90;99592.50;5112212;28;20214;-61
2022/11/07 04:42:45;;;;;;;0.93;0.40;;;;;;;12.53;96.41;99598.94;5112296;28;20204;-59
2022/11/07 04:45:13;;;;;;;0.47;0.47;;;;;;;12.49;96.12;99597.53;5112045;28;20222;-57
2022/11/07 04:47:40;;;;;;;0.40;0.40;;;;;;;12.52;95.98;99599.06;5111992;28;20201;-61
2022/11/07 04:50:09;;;;;;;0.20;0.20;;;;;;;12.60;95.20;99607.03;5112049;28;20229;-57
2022/11/07 04:52:36;;;;;;;0.37;0.37;;;;;;;12.46;95.94;99608.84;5112156;27;20193;-57
2022/11/07 04:55:03;;;;;;;0.40;0.40;;;;;;;12.54;95.58;99607.47;5111929;28;20724;-57
2022/11/07 04:57:31;;;;;;;0.87;0.87;;;;;;;12.37;96.24;99604.38;5111783;28;20720;-61
2022/11/07 04:59:58;;;;;;;0.70;0.63;;;;;;;12.41;95.73;99613.47;5111632;28;20298;-61
2022/11/07 05:02:25;;;;;;;0.50;0.50;;;;;;;12.39;96.16;99615.34;5111741;27;20681;-61
2022/11/07 05:04:53;;;;;;;0.60;0.50;;;;;;;12.38;96.33;99616.25;5111738;28;20225;-61
2022/11/07 05:07:20;;;;;;;0.30;0.30;;;;;;;12.37;96.28;99614.63;5111983;28;20197;-61
2022/11/07 05:09:47;;;;;;;0.30;0.30;;;;;;;12.30;96.65;99615.97;5111773;27;20224;-57
2022/11/07 05:12:13;;;;;;;0.67;0.67;;;;;;;12.42;96.10;99624.53;5111595;28;20688;-57
2022/11/07 05:14:42;;;;;;;0.80;0.57;;;;;;;12.32;95.87;99626.13;5111466;28;20720;-57
2022/11/07 05:17:10;;;;;;;1.00;0.77;;;;;;;12.33;96.12;99635.44;5111907;28;20197;-61
2022/11/07 05:19:37;;;;;;;0.87;0.87;;;;;;;12.30;96.45;99631.34;5111663;28;20230;-57
2022/11/07 05:24:48;;;;;;;1.33;1.03;;;;;;;12.36;96.10;99646.34;5111593;28;20354;-61
2022/11/07 05:27:17;;;;;;;0.77;0.50;;;;;;;12.28;96.63;99653.75;5111288;28;20197;-61
2022/11/07 05:29:46;;;;;;;0.20;0.20;;;;;;;12.23;96.91;99655.81;5111361;28;20783;-61
2022/11/07 05:32:13;;;;;;;0.50;0.50;;;;;;;12.23;97.00;99660.94;5111063;28;20201;-57
2022/11/07 05:34:40;;;;;;;0.50;0.50;;;;;;;12.29;96.85;99665.63;5111288;28;20224;-57
2022/11/07 05:37:08;;;;;;;0.50;0.50;;;;;;;12.32;96.68;99669.72;5111219;28;20267;-57
2022/11/07 05:39:35;;;;;;;1.07;0.70;;;;;;;12.29;96.86;99670.75;5111324;28;20468;-61
2022/11/07 05:42:02;;;;;;;0.40;0.40;;;;;;;12.35;96.19;99667.75;5111123;28;20201;-57
2022/11/07 05:44:29;;;;;;;0.97;0.70;;;;;;;12.30;95.87;99669.81;5110836;28;20221;-61
2022/11/07 05:46:58;;;;;;;1.17;1.07;;;;;;;12.22;96.64;99670.38;5110110;28;20201;-61
2022/11/07 05:49:25;;;;;;;0.60;0.60;;;;;;;12.19;96.82;99669.78;5111006;28;20252;-61
2022/11/07 05:51:52;;;;;;;0.50;0.40;;;;;;;12.27;97.02;99672.59;5110588;28;20228;-61
2022/11/07 05:54:19;;;;;;;0.27;0.27;;;;;;;12.33;96.50;99671.34;5111024;28;20221;-61
2022/11/07 05:56:46;;;;;;;0.43;0.43;;;;;;;12.31;96.00;99683.47;5110844;28;20685;-57
2022/11/07 05:59:13;;;;;;;1.07;0.47;;;;;;;12.38;96.18;99684.66;5111013;28;20225;-58
2022/11/07 06:01:40;;;;;;;0.70;0.50;;;;;;;12.48;96.07;99689.97;5110462;28;20224;-61
2022/11/07 06:04:09;;;;;;;0.50;0.50;;;;;;;12.55;95.42;99686.06;5110498;28;20267;-58
2022/11/07 06:06:35;;;;;;;0.37;0.37;;;;;;;12.51;95.22;99694.88;5110623;28;20202;-57
2022/11/07 06:09:02;;;;;;;0.47;0.47;;;;;;;12.54;94.88;99695.50;5110463;28;20709;-57
2022/11/07 06:11:30;;;;;;;0.87;0.63;;;;;;;12.49;94.83;99696.75;5110324;28;20239;-61
2022/11/07 06:13:57;;;;;;;0.97;0.77;;;;;;;12.60;94.31;99704.50;5110276;27;20242;-61
2022/11/07 06:16:24;;;;;;;0.30;0.30;;;;;;;12.59;94.61;99708.78;5110495;28;20677;-61
2022/11/07 06:18:51;;;;;;;1.00;0.90;;;;;;;12.56;94.37;99705.63;5110267;28;20654;-61
2022/11/07 06:21:19;;;;;;;0.40;0.40;;;;;;;12.64;93.32;99721.31;5110463;28;20208;-57
2022/11/07 06:23:46;;;;;;;0.80;0.80;;;;;;;12.58;94.22;99716.63;5110261;28;20201;-61
2022/11/07 06:26:13;;;;;;;0.60;0.57;;;;;;;12.65;93.65;99717.81;5110322;28;20194;-61
2022/11/07 06:28:39;;;;;;;0.27;0.27;;;;;;;12.57;93.15;99712.44;5110194;28;20193;-61
2022/11/07 06:31:06;;;;;;;0.37;0.37;;;;;;;12.61;93.52;99716.41;5110252;28;20225;-58
2022/11/07 06:33:33;;;;;;;0.73;0.50;;;;;;;12.63;93.43;99717.13;5110330;28;20201;-61
2022/11/07 06:36:08;;;;;;;0.53;0.53;;;;;;;12.63;93.24;99722.25;5110347;28;20217;-57
2022/11/07 06:38:37;;;;;;;0.53;0.53;;;;;;;12.78;92.01;99726.28;5110066;28;20707;-58
2022/11/07 06:41:06;;;;;;;1.20;0.60;;;;;;;12.75;92.04;99728.25;5110073;28;20212;-62
2022/11/07 06:43:33;;;;;;;0.77;0.67;;;;;;;12.76;91.87;99729.88;5110132;28;20623;-61
2022/11/07 06:46:03;;;;;;;1.87;0.80;;;;;;;12.86;91.86;99741.97;5110065;28;20249;-58
2022/11/07 06:48:30;;;;;;;0.60;0.60;;;;;;;12.98;90.96;99739.44;5110041;28;20285;-61
2022/11/07 06:50:58;;;;;;;0.50;0.50;;;;;;;12.99;90.70;99741.09;5109957;28;20626;-61
2022/11/07 06:53:25;;;;;;;0.90;0.77;;;;;;;13.02;90.72;99731.41;5109791;28;20209;-57
2022/11/07 06:55:54;;;;;;;0.93;0.80;;;;;;;12.97;90.27;99743.75;5109794;28;20305;-57
2022/11/07 06:58:21;;;;;;;0.77;0.70;;;;;;;13.00;90.91;99748.69;5113811;28;20201;-56
2022/11/07 07:00:48;;;;;;;0.47;0.47;;;;;;;13.19;89.65;99745.59;5114067;28;20229;-61
2022/11/07 07:03:15;;;;;;;0.47;0.47;;;;;;;13.07;90.05;99738.78;5114158;28;20231;-61
2022/11/07 07:05:42;;;;;;;2.13;1.23;;;;;;;13.15;89.30;99744.19;5114114;28;20225;-61
2022/11/07 07:08:11;;;;;;;1.43;0.63;;;;;;;13.06;89.68;99740.53;5114728;28;20194;-57
2022/11/07 07:10:42;;;;;;;0.97;0.50;;;;;;;13.16;89.37;99738.13;5113997;28;20727;-61
2022/11/07 07:13:11;;;;;;;1.20;0.60;;;;;;;13.16;89.18;99742.44;5113981;28;20208;-61
2022/11/07 07:15:38;;;;;;;0.50;0.50;;;;;;;13.17;88.39;99750.00;5114313;28;20713;-57
2022/11/07 07:18:05;;;;;;;0.43;0.43;;;;;;;13.33;88.05;99750.56;5114206;28;20626;-57
2022/11/07 07:20:32;;;;;;;0.63;0.63;;;;;;;13.48;87.25;99758.09;5114135;28;20221;-57
2022/11/07 07:22:59;;;;;;;0.80;0.80;;;;;;;13.40;87.13;99745.81;5113922;28;20273;-61
2022/11/07 07:25:26;;;;;;;0.47;0.47;;;;;;;13.42;87.42;99758.56;5113725;28;20785;-57
2022/11/07 07:27:52;;;;;;;0.40;0.40;;;;;;;13.51;87.40;99756.13;5114006;28;20220;-61
2022/11/07 07:30:21;;;;;;;0.43;0.40;;;;;;;13.53;86.80;99761.16;5113542;28;20225;-57
2022/11/07 07:32:47;;;;;;;0.77;0.50;;;;;;;13.56;86.52;99755.78;5113769;28;20211;-60
2022/11/07 07:35:14;;;;;;;0.80;0.80;;;;;;;13.62;86.18;99759.66;5113485;28;20697;-60
2022/11/07 07:37:41;;;;;;;0.40;0.40;;;;;;;13.64;86.92;99761.16;5113549;28;20205;-62
2022/11/07 07:40:09;;;;;;;0.77;0.57;;;;;;;13.91;86.26;99760.06;5113535;28;20219;-61
2022/11/07 07:42:41;;;;;;;1.40;0.80;;;;;;;13.98;85.21;99756.88;5113533;28;20211;-60
2022/11/07 07:45:09;;;;;;;0.73;0.73;;;;;;;13.99;84.70;99761.09;5113634;28;20318;-61
2022/11/07 07:47:38;;;;;;;1.03;0.93;;;;;;;13.95;84.71;99761.44;5113522;28;20198;-61
2022/11/07 07:50:06;;;;;;;0.60;0.60;;;;;;;13.85;85.04;99763.09;5113432;28;20215;-57
2022/11/07 07:52:32;;;;;;;0.80;0.80;;;;;;;13.85;84.78;99760.50;5113351;28;20716;-57
2022/11/07 07:54:59;;;;;;;1.83;0.73;;;;;;;13.83;84.93;99768.31;5113610;28;20478;-57
2022/11/07 07:57:26;;;;;;;0.67;0.67;;;;;;;13.97;84.40;99760.41;5113126;27;20200;-61
2022/11/07 07:59:53;;;;;;;0.53;0.53;;;;;;;14.18;84.46;99770.00;5113496;28;20227;-57
2022/11/07 08:02:19;;;;;;;0.40;0.40;;;;;;;14.27;83.35;99764.94;5113300;28;20195;-61
2022/11/07 08:04:47;;;;;;;0.93;0.93;;;;;;;14.12;83.68;99760.16;5113261;28;20239;-61
2022/11/07 08:07:14;;;;;;;0.30;0.30;;;;;;;14.27;84.03;99771.84;5113078;28;20197;-59
2022/11/07 08:09:41;;;;;;;0.80;0.80;;;;;;;14.25;83.16;99764.28;5112728;28;20228;-61
2022/11/07 08:12:08;;;;;;;1.60;0.77;;;;;;;14.26;82.73;99757.38;5112823;28;20665;-61
2022/11/07 08:14:35;;;;;;;1.43;1.00;;;;;;;14.34;82.98;99756.75;5113031;27;20267;-57
2022/11/07 08:17:02;;;;;;;0.30;0.30;;;;;;;14.46;82.53;99760.97;5112913;28;20212;-61
2022/11/07 08:19:29;;;;;;;1.03;0.97;;;;;;;14.55;82.29;99760.28;5112924;28;20239;-57
2022/11/07 08:21:57;;;;;;;1.40;0.90;;;;;;;14.64;81.98;99759.56;5112693;28;20203;-57
2022/11/07 08:24:24;;;;;;;0.50;0.47;;;;;;;14.80;81.72;99763.50;5112872;27;20704;-57
2022/11/07 08:26:51;;;;;;;0.53;0.53;;;;;;;14.67;80.10;99772.19;5112555;28;20200;-57
2022/11/07 08:29:17;;;;;;;0.73;0.70;;;;;;;14.58;80.99;99767.75;5112860;28;20221;-59
2022/11/07 08:31:44;;;;;;;2.33;0.70;;;;;;;14.60;81.13;99773.63;5112411;28;20351;-61
2022/11/07 08:34:11;;;;;;;0.93;0.70;;;;;;;14.61;81.35;99774.44;5112679;28;20719;-61
2022/11/07 08:36:38;;;;;;;1.17;1.07;;;;;;;14.62;80.88;99778.63;5112584;28;20201;-61
2022/11/07 08:39:06;;;;;;;0.97;0.70;;;;;;;14.84;80.34;99775.22;5112525;27;20213;-61
2022/11/07 08:41:32;;;;;;;1.30;1.07;;;;;;;14.81;79.74;99770.31;5112477;28;20252;-57
2022/11/07 08:43:59;;;;;;;0.40;0.40;;;;;;;14.83;79.70;99768.41;5112380;28;20225;-57
2022/11/07 08:46:26;;;;;;;0.80;0.80;;;;;;;14.75;80.13;99771.59;5112328;28;20208;-61
2022/11/07 08:48:53;;;;;;;0.50;0.50;;;;;;;14.76;80.09;99772.41;5112485;28;20583;-61
2022/11/07 08:51:20;;;;;;;2.00;0.87;;;;;;;14.88;80.40;99771.44;5112077;28;20228;-61
2022/11/07 08:53:46;;;;;;;1.30;0.87;;;;;;;14.99;78.85;99773.97;5111976;28;20193;-61
2022/11/07 08:56:14;;;;;;;0.70;0.70;;;;;;;15.09;79.89;99774.06;5112155;28;20251;-61
2022/11/07 08:58:41;;;;;;;0.83;0.60;;;;;;;15.26;77.91;99780.44;5111984;28;20584;-57
2022/11/07 09:01:09;;;;;;;0.97;0.90;;;;;;;15.11;77.81;99778.16;5112258;28;20725;-57
2022/11/07 09:03:36;;;;;;;2.60;1.00;;;;;;;15.00;78.34;99785.09;5111979;28;20210;-57
2022/11/07 09:06:04;;;;;;;0.73;0.50;;;;;;;15.06;78.40;99787.19;5112319;27;20226;-57
2022/11/07 09:08:31;;;;;;;0.93;0.80;;;;;;;15.27;77.98;99793.22;5111994;28;20197;-57
2022/11/07 09:11:02;;;;;;;1.30;0.97;;;;;;;15.30;77.92;99792.13;5111575;28;20221;-62
2022/11/07 09:13:30;;;;;;;0.60;0.60;;;;;;;15.47;76.13;99794.16;5111684;28;20279;-57
2022/11/07 09:15:58;;;;;;;1.67;0.70;;;;;;;15.44;77.52;99807.28;5111689;28;20753;-57
2022/11/07 09:18:25;;;;;;;1.30;1.20;;;;;;;15.53;76.03;99796.25;5111642;28;20296;-57
2022/11/07 09:20:52;;;;;;;0.97;0.67;;;;;;;15.60;76.35;99796.56;5110384;28;20215;-61
2022/11/07 09:23:19;;;;;;;1.83;1.10;;;;;;;15.62;76.37;99792.91;5111878;28;20200;-57
2022/11/07 09:25:46;;;;;;;12.63;6.03;;;;;;;15.53;76.80;99796.25;5111463;28;20294;-61
2022/11/07 09:28:13;;;;;;;1.07;0.77;;;;;;;15.65;75.27;99796.16;5111419;28;20654;-61
2022/11/07 09:30:41;;;;;;;2.07;1.70;;;;;;;15.41;76.42;99799.81;5111587;28;20221;-61
2022/11/07 09:33:08;;;;;;;1.20;1.10;;;;;;;15.53;77.21;99791.09;5111382;28;20291;-62
2022/11/07 09:35:35;;;;;;;2.23;1.50;;;;;;;15.80;76.46;99788.03;5111471;28;20727;-61
2022/11/07 09:38:02;;;;;;;1.07;0.93;;;;;;;16.05;75.09;99783.41;5111272;28;20744;-61
2022/11/07 09:40:41;;;;;;;3.13;1.40;;;;;;;16.09;74.34;99778.81;5111116;28;20211;-61
2022/11/07 09:43:30;;;;;;;1.27;0.73;;;;;;;16.27;73.68;99779.84;5111546;28;20201;-61
2022/11/07 09:46:09;;;;;;;1.70;1.20;;;;;;;16.30;73.03;99777.00;5111022;28;20757;-57
2022/11/07 09:48:46;;;;;;;1.00;0.90;;;;;;;16.42;72.47;99775.94;5111238;28;20193;-61
2022/11/07 09:51:25;;;;;;;0.67;0.60;;;;;;;16.51;72.57;99774.34;5110951;28;20843;-57
2022/11/07 09:53:58;;;;;;;1.60;1.03;;;;;;;16.04;72.36;99771.44;5110933;28;20704;-57
2022/11/07 09:56:27;;;;;;;1.73;1.27;;;;;;;16.18;72.84;99772.88;5111229;28;20209;-61
2022/11/07 09:58:54;;;;;;;0.63;0.30;;;;;;;16.55;72.38;99769.72;5110853;28;20580;-57
2022/11/07 10:01:22;;;;;;;1.43;0.93;;;;;;;16.41;72.92;99769.16;5110868;28;20250;-61
2022/11/07 10:03:49;;;;;;;3.77;2.43;;;;;;;16.43;71.84;99767.25;5110642;28;20288;-61
2022/11/07 10:06:23;;;;;;;1.20;1.00;;;;;;;16.51;71.38;99759.66;5110753;28;20189;-61
2022/11/07 10:08:59;;;;;;;1.03;0.83;;;;;;;16.64;71.72;99758.59;5110801;28;20196;-57
2022/11/07 10:11:33;;;;;;;0.77;0.57;;;;;;;16.75;71.14;99756.72;5110628;28;20835;-60
2022/11/07 10:14:10;;;;;;;2.10;1.43;;;;;;;16.88;70.62;99759.06;5110401;27;20481;-57
2022/11/07 10:16:48;;;;;;;1.07;0.60;;;;;;;16.90;69.73;99754.59;5110727;28;20232;-58
2022/11/07 10:19:39;;;;;;;0.87;0.60;;;;;;;16.97;68.85;99755.69;5110802;28;20228;-61
2022/11/07 10:22:16;;;;;;;0.73;0.70;;;;;;;16.93;69.11;99751.75;5110674;28;20590;-61
2022/11/07 10:24:59;;;;;;;1.33;0.80;;;;;;;17.22;69.07;99738.00;5110438;28;20322;-61
2022/11/07 10:27:27;;;;;;;0.37;0.37;;;;;;;17.45;68.10;99732.53;5110358;28;20200;-61
2022/11/07 10:29:55;;;;;;;0.43;0.43;;;;;;;17.46;67.59;99744.50;5110427;28;20725;-58
2022/11/07 10:32:26;;;;;;;1.73;1.07;;;;;;;17.41;67.42;99737.16;5110231;28;20288;-61
2022/11/07 10:35:01;;;;;;;0.73;0.73;;;;;;;17.10;67.68;99744.25;5110494;27;20767;-61
2022/11/07 10:37:28;;;;;;;3.83;2.13;;;;;;;17.05;67.47;99736.94;5110090;28;20201;-57
2022/11/07 10:39:54;;;;;;;8.50;1.20;;;;;;;17.43;68.17;99728.31;5110263;28;20221;-58
2022/11/07 10:42:25;;;;;;;1.07;0.73;;;;;;;17.57;67.19;99726.22;5110306;28;20197;-58
2022/11/07 10:44:54;;;;;;;2.17;1.13;;;;;;;17.56;65.50;99727.19;5110181;28;20282;-58
2022/11/07 10:47:26;;;;;;;1.17;1.07;;;;;;;17.55;66.92;99728.16;5110306;28;20635;-57
2022/11/07 10:49:56;;;;;;;0.77;0.77;;;;;;;17.55;66.22;99728.16;5110649;28;20677;-61
2022/11/07 10:52:22;;;;;;;0.80;0.77;;;;;;;17.71;65.77;99727.56;5110291;28;20317;-57
2022/11/07 10:54:49;;;;;;;1.90;1.03;;;;;;;17.76;65.90;99720.19;5110376;28;20213;-61
2022/11/07 10:57:19;;;;;;;1.63;1.50;;;;;;;17.82;65.32;99715.31;5110206;28;20637;-62
2022/11/07 10:59:55;;;;;;;1.50;1.30;;;;;;;17.66;64.51;99730.59;5109939;28;20226;-57
2022/11/07 11:02:25;;;;;;;2.47;1.10;;;;;;;17.24;66.13;99730.91;5110045;28;20194;-61
2022/11/07 11:04:54;;;;;;;2.07;1.70;;;;;;;17.46;65.87;99718.66;5109941;28;20226;-62
2022/11/07 11:07:24;;;;;;;2.53;1.53;;;;;;;17.45;65.94;99717.00;5110150;28;20259;-58
2022/11/07 11:09:54;;;;;;;1.30;1.00;;;;;;;17.71;66.27;99712.03;5110118;28;20219;-58
2022/11/07 11:12:26;;;;;;;0.83;0.60;;;;;;;17.88;65.35;99709.56;5109853;28;20228;-57
2022/11/07 11:15:04;;;;;;;0.83;0.80;;;;;;;17.88;66.38;99704.38;5110286;28;20234;-62
2022/11/07 11:17:33;;;;;;;1.90;1.10;;;;;;;17.98;65.89;99713.91;5110038;28;20291;-62
2022/11/07 11:20:00;;;;;;;1.70;1.20;;;;;;;18.44;65.83;99709.53;5109658;28;20225;-58
2022/11/07 11:22:28;;;;;;;1.03;0.80;;;;;;;18.88;62.90;99697.53;5109826;28;20197;-58
2022/11/07 11:25:14;;;;;;;1.10;0.73;;;;;;;19.35;62.71;99696.44;5110077;28;20214;-58
2022/11/07 11:27:41;;;;;;;0.97;0.97;;;;;;;19.49;60.38;99697.63;5109732;28;20212;-62
2022/11/07 11:30:15;;;;;;;1.73;1.03;;;;;;;19.38;60.21;99696.13;5109999;28;20226;-62
2022/11/07 11:32:50;;;;;;;1.03;0.90;;;;;;;19.07;61.48;99695.75;5109483;28;20228;-58
2022/11/07 11:35:31;;;;;;;0.80;0.80;;;;;;;19.02;62.22;99693.59;5109781;28;20291;-62
2022/11/07 11:38:02;;;;;;;0.73;0.73;;;;;;;18.94;61.15;99683.19;5109603;28;20630;-62
2022/11/07 11:40:35;;;;;;;1.73;1.10;;;;;;;18.43;62.75;99687.22;5110107;28;20224;-58
2022/11/07 11:43:15;;;;;;;1.17;1.07;;;;;;;18.45;63.38;99685.28;5109671;28;20208;-58
2022/11/07 11:45:54;;;;;;;1.53;1.20;;;;;;;18.66;61.82;99683.22;5113478;28;20224;-62
2022/11/07 11:48:25;;;;;;;1.97;1.20;;;;;;;18.71;62.90;99681.00;5113658;28;20679;-58
2022/11/07 11:50:56;;;;;;;2.37;1.20;;;;;;;18.63;61.93;99673.16;5113452;27;20246;-58